sensor_id;sensor_type;location;lat;lon;timestamp;P1;durP1;ratioP1;P2;durP2;ratioP2
41167;SDS011;26906;45.658;9.272;2024-02-04T06:36:18;28.23;;;19.65;;
41167;SDS011;26906;45.658;9.272;2024-02-04T06:38:43;28.05;;;19.20;;
41167;SDS011;26906;45.658;9.272;2024-02-04T06:41:09;37.58;;;24.38;;
41167;SDS011;26906;45.658;9.272;2024-02-04T06:43:36;41.25;;;26.42;;
41167;SDS011;26906;45.658;9.272;2024-02-04T06:46:03;38.67;;;25.38;;
41167;SDS011;26906;45.658;9.272;2024-02-04T06:48:28;30.52;;;22.48;;
41167;SDS011;26906;45.658;9.272;2024-02-04T06:50:55;26.80;;;19.83;;
41167;SDS011;26906;45.658;9.272;2024-02-04T06:53:21;26.35;;;20.27;;
41167;SDS011;26906;45.658;9.272;2024-02-04T06:55:48;35.08;;;22.02;;
41167;SDS011;26906;45.658;9.272;2024-02-04T06:58:15;29.85;;;21.73;;
41167;SDS011;26906;45.658;9.272;2024-02-04T07:01:05;32.03;;;22.58;;
41167;SDS011;26906;45.658;9.272;2024-02-04T07:03:31;32.70;;;22.05;;
41167;SDS011;26906;45.658;9.272;2024-02-04T07:06:01;28.63;;;20.50;;
41167;SDS011;26906;45.658;9.272;2024-02-04T07:08:26;32.40;;;22.40;;
41167;SDS011;26906;45.658;9.272;2024-02-04T07:10:52;32.60;;;22.88;;
41167;SDS011;26906;45.658;9.272;2024-02-04T07:13:18;31.23;;;21.88;;
41167;SDS011;26906;45.658;9.272;2024-02-04T07:15:44;34.95;;;23.50;;
41167;SDS011;26906;45.658;9.272;2024-02-04T07:18:10;30.48;;;23.13;;
41167;SDS011;26906;45.658;9.272;2024-02-04T07:20:36;33.58;;;23.73;;
41167;SDS011;26906;45.658;9.272;2024-02-04T07:23:02;29.30;;;21.30;;
41167;SDS011;26906;45.658;9.272;2024-02-04T07:25:30;28.90;;;20.30;;
41167;SDS011;26906;45.658;9.272;2024-02-04T07:27:57;26.88;;;19.48;;
41167;SDS011;26906;45.658;9.272;2024-02-04T07:30:23;27.15;;;20.00;;
41167;SDS011;26906;45.658;9.272;2024-02-04T07:32:49;29.42;;;20.73;;
41167;SDS011;26906;45.658;9.272;2024-02-04T07:35:16;30.80;;;22.83;;
41167;SDS011;26906;45.658;9.272;2024-02-04T07:37:43;35.92;;;25.27;;
41167;SDS011;26906;45.658;9.272;2024-02-04T07:40:10;37.88;;;24.60;;
41167;SDS011;26906;45.658;9.272;2024-02-04T07:42:37;31.83;;;22.52;;
41167;SDS011;26906;45.658;9.272;2024-02-04T07:45:03;31.20;;;22.90;;
41167;SDS011;26906;45.658;9.272;2024-02-04T07:47:53;34.85;;;23.70;;
41167;SDS011;26906;45.658;9.272;2024-02-04T07:50:19;29.80;;;22.58;;
41167;SDS011;26906;45.658;9.272;2024-02-04T07:52:44;32.25;;;22.63;;
41167;SDS011;26906;45.658;9.272;2024-02-04T07:55:10;33.45;;;24.30;;
41167;SDS011;26906;45.658;9.272;2024-02-04T07:57:36;34.63;;;23.92;;
41167;SDS011;26906;45.658;9.272;2024-02-04T08:00:01;35.88;;;26.00;;
41167;SDS011;26906;45.658;9.272;2024-02-04T08:02:37;38.53;;;27.70;;
41167;SDS011;26906;45.658;9.272;2024-02-04T08:05:05;37.95;;;26.30;;
41167;SDS011;26906;45.658;9.272;2024-02-04T08:07:31;34.72;;;23.35;;
41167;SDS011;26906;45.658;9.272;2024-02-04T08:09:58;34.33;;;24.95;;
41167;SDS011;26906;45.658;9.272;2024-02-04T08:12:24;32.03;;;23.38;;
41167;SDS011;26906;45.658;9.272;2024-02-04T08:14:49;34.33;;;26.10;;
41167;SDS011;26906;45.658;9.272;2024-02-04T08:17:17;34.25;;;24.33;;
41167;SDS011;26906;45.658;9.272;2024-02-04T08:19:46;32.17;;;23.20;;
41167;SDS011;26906;45.658;9.272;2024-02-04T08:22:13;31.48;;;22.15;;
41167;SDS011;26906;45.658;9.272;2024-02-04T08:24:39;32.67;;;24.33;;
41167;SDS011;26906;45.658;9.272;2024-02-04T08:27:05;31.45;;;23.02;;
41167;SDS011;26906;45.658;9.272;2024-02-04T08:29:31;30.05;;;22.33;;
41167;SDS011;26906;45.658;9.272;2024-02-04T08:31:56;32.80;;;22.92;;
41167;SDS011;26906;45.658;9.272;2024-02-04T08:34:22;36.95;;;25.25;;
41167;SDS011;26906;45.658;9.272;2024-02-04T08:36:52;39.38;;;25.77;;
41167;SDS011;26906;45.658;9.272;2024-02-04T08:39:17;41.17;;;28.25;;
41167;SDS011;26906;45.658;9.272;2024-02-04T08:41:43;45.03;;;28.38;;
41167;SDS011;26906;45.658;9.272;2024-02-04T08:44:09;41.85;;;30.02;;
41167;SDS011;26906;45.658;9.272;2024-02-04T08:46:43;40.58;;;29.17;;
41167;SDS011;26906;45.658;9.272;2024-02-04T08:49:09;41.00;;;30.27;;
41167;SDS011;26906;45.658;9.272;2024-02-04T08:51:34;42.20;;;30.73;;
41167;SDS011;26906;45.658;9.272;2024-02-04T08:54:00;42.00;;;30.45;;
41167;SDS011;26906;45.658;9.272;2024-02-04T08:56:26;43.38;;;31.33;;
41167;SDS011;26906;45.658;9.272;2024-02-04T08:58:53;43.45;;;30.83;;
41167;SDS011;26906;45.658;9.272;2024-02-04T09:01:19;40.85;;;30.70;;
41167;SDS011;26906;45.658;9.272;2024-02-04T09:03:44;40.35;;;30.70;;
41167;SDS011;26906;45.658;9.272;2024-02-04T09:06:10;45.08;;;30.02;;
41167;SDS011;26906;45.658;9.272;2024-02-04T09:08:35;42.08;;;30.08;;
41167;SDS011;26906;45.658;9.272;2024-02-04T09:11:02;45.38;;;32.38;;
41167;SDS011;26906;45.658;9.272;2024-02-04T09:13:30;43.65;;;31.42;;
41167;SDS011;26906;45.658;9.272;2024-02-04T09:15:56;42.95;;;31.33;;
41167;SDS011;26906;45.658;9.272;2024-02-04T09:18:24;42.50;;;31.25;;
41167;SDS011;26906;45.658;9.272;2024-02-04T09:20:50;45.00;;;31.98;;
41167;SDS011;26906;45.658;9.272;2024-02-04T09:23:15;44.53;;;32.03;;
41167;SDS011;26906;45.658;9.272;2024-02-04T09:25:41;44.55;;;29.92;;
41167;SDS011;26906;45.658;9.272;2024-02-04T09:28:08;42.67;;;31.05;;
41167;SDS011;26906;45.658;9.272;2024-02-04T09:30:33;45.05;;;31.23;;
41167;SDS011;26906;45.658;9.272;2024-02-04T09:33:01;39.80;;;29.67;;
41167;SDS011;26906;45.658;9.272;2024-02-04T09:35:28;44.22;;;29.98;;
41167;SDS011;26906;45.658;9.272;2024-02-04T09:37:54;43.92;;;29.33;;
41167;SDS011;26906;45.658;9.272;2024-02-04T09:40:21;44.70;;;30.38;;
41167;SDS011;26906;45.658;9.272;2024-02-04T09:42:48;44.15;;;30.45;;
41167;SDS011;26906;45.658;9.272;2024-02-04T09:45:14;41.97;;;29.50;;
41167;SDS011;26906;45.658;9.272;2024-02-04T09:47:41;44.65;;;29.70;;
41167;SDS011;26906;45.658;9.272;2024-02-04T09:50:09;39.83;;;29.70;;
41167;SDS011;26906;45.658;9.272;2024-02-04T09:52:35;41.83;;;30.05;;
41167;SDS011;26906;45.658;9.272;2024-02-04T09:55:06;40.55;;;28.75;;
41167;SDS011;26906;45.658;9.272;2024-02-04T09:57:34;40.90;;;28.92;;
41167;SDS011;26906;45.658;9.272;2024-02-04T10:00:03;39.90;;;28.35;;
41167;SDS011;26906;45.658;9.272;2024-02-04T10:02:37;40.63;;;29.00;;
41167;SDS011;26906;45.658;9.272;2024-02-04T10:05:03;40.80;;;27.77;;
41167;SDS011;26906;45.658;9.272;2024-02-04T10:07:29;39.90;;;29.15;;
41167;SDS011;26906;45.658;9.272;2024-02-04T10:09:55;41.40;;;29.02;;
41167;SDS011;26906;45.658;9.272;2024-02-04T10:12:21;40.70;;;29.55;;
41167;SDS011;26906;45.658;9.272;2024-02-04T10:14:48;38.97;;;29.25;;
41167;SDS011;26906;45.658;9.272;2024-02-04T10:17:15;43.45;;;29.45;;
41167;SDS011;26906;45.658;9.272;2024-02-04T10:19:41;42.50;;;30.25;;
41167;SDS011;26906;45.658;9.272;2024-02-04T10:22:07;43.83;;;31.92;;
41167;SDS011;26906;45.658;9.272;2024-02-04T10:24:33;41.78;;;30.55;;
41167;SDS011;26906;45.658;9.272;2024-02-04T10:26:58;46.33;;;32.45;;
41167;SDS011;26906;45.658;9.272;2024-02-04T10:29:24;41.92;;;31.38;;
41167;SDS011;26906;45.658;9.272;2024-02-04T10:31:57;48.00;;;32.67;;
41167;SDS011;26906;45.658;9.272;2024-02-04T10:34:26;45.30;;;32.08;;
41167;SDS011;26906;45.658;9.272;2024-02-04T10:36:53;44.50;;;30.58;;
41167;SDS011;26906;45.658;9.272;2024-02-04T10:39:21;43.00;;;30.20;;
41167;SDS011;26906;45.658;9.272;2024-02-04T10:41:49;40.45;;;30.73;;
41167;SDS011;26906;45.658;9.272;2024-02-04T10:44:17;42.45;;;31.33;;
41167;SDS011;26906;45.658;9.272;2024-02-04T10:46:48;41.70;;;30.20;;
41167;SDS011;26906;45.658;9.272;2024-02-04T10:49:15;40.35;;;29.50;;
41167;SDS011;26906;45.658;9.272;2024-02-04T10:51:44;40.53;;;30.10;;
41167;SDS011;26906;45.658;9.272;2024-02-04T10:54:14;38.00;;;28.85;;
41167;SDS011;26906;45.658;9.272;2024-02-04T10:56:44;36.97;;;27.80;;
41167;SDS011;26906;45.658;9.272;2024-02-04T10:59:11;35.72;;;25.92;;
41167;SDS011;26906;45.658;9.272;2024-02-04T11:01:43;32.58;;;24.70;;
41167;SDS011;26906;45.658;9.272;2024-02-04T11:04:13;34.67;;;24.52;;
41167;SDS011;26906;45.658;9.272;2024-02-04T11:06:42;34.58;;;25.90;;
41167;SDS011;26906;45.658;9.272;2024-02-04T11:09:09;38.72;;;26.52;;
41167;SDS011;26906;45.658;9.272;2024-02-04T11:11:39;36.13;;;25.63;;
41167;SDS011;26906;45.658;9.272;2024-02-04T11:14:06;39.95;;;27.10;;
41167;SDS011;26906;45.658;9.272;2024-02-04T11:22:37;38.85;;;24.70;;
41167;SDS011;26906;45.658;9.272;2024-02-04T11:27:58;34.10;;;24.92;;
41167;SDS011;26906;45.658;9.272;2024-02-04T11:30:25;34.90;;;24.52;;
41167;SDS011;26906;45.658;9.272;2024-02-04T11:32:50;27.02;;;22.10;;
41167;SDS011;26906;45.658;9.272;2024-02-04T11:35:16;38.30;;;22.85;;
41167;SDS011;26906;45.658;9.272;2024-02-04T11:37:42;34.75;;;23.48;;
41167;SDS011;26906;45.658;9.272;2024-02-04T11:40:13;29.17;;;21.95;;
41167;SDS011;26906;45.658;9.272;2024-02-04T11:42:45;34.50;;;23.30;;
41167;SDS011;26906;45.658;9.272;2024-02-04T11:45:11;33.97;;;23.52;;
41167;SDS011;26906;45.658;9.272;2024-02-04T11:47:39;29.15;;;22.02;;
41167;SDS011;26906;45.658;9.272;2024-02-04T11:50:06;31.27;;;21.98;;
41167;SDS011;26906;45.658;9.272;2024-02-04T11:52:32;32.53;;;22.50;;
41167;SDS011;26906;45.658;9.272;2024-02-04T11:54:58;32.40;;;23.58;;
41167;SDS011;26906;45.658;9.272;2024-02-04T11:57:24;29.15;;;23.42;;
41167;SDS011;26906;45.658;9.272;2024-02-04T11:59:53;32.92;;;23.33;;
41167;SDS011;26906;45.658;9.272;2024-02-04T12:02:20;31.58;;;22.38;;
41167;SDS011;26906;45.658;9.272;2024-02-04T12:04:46;30.05;;;22.88;;
41167;SDS011;26906;45.658;9.272;2024-02-04T12:07:13;25.35;;;20.98;;
41167;SDS011;26906;45.658;9.272;2024-02-04T12:09:39;26.40;;;21.02;;
41167;SDS011;26906;45.658;9.272;2024-02-04T12:12:07;27.50;;;21.00;;
41167;SDS011;26906;45.658;9.272;2024-02-04T12:14:34;27.17;;;20.35;;
41167;SDS011;26906;45.658;9.272;2024-02-04T12:17:07;27.13;;;22.65;;
41167;SDS011;26906;45.658;9.272;2024-02-04T12:19:38;30.13;;;21.38;;
41167;SDS011;26906;45.658;9.272;2024-02-04T12:22:04;31.48;;;22.85;;
41167;SDS011;26906;45.658;9.272;2024-02-04T12:24:36;29.40;;;22.05;;
41167;SDS011;26906;45.658;9.272;2024-02-04T12:27:02;30.52;;;21.92;;
41167;SDS011;26906;45.658;9.272;2024-02-04T12:29:31;28.13;;;21.85;;
41167;SDS011;26906;45.658;9.272;2024-02-04T12:31:58;30.40;;;22.40;;
41167;SDS011;26906;45.658;9.272;2024-02-04T12:34:28;30.23;;;22.40;;
41167;SDS011;26906;45.658;9.272;2024-02-04T12:36:58;30.55;;;23.85;;
41167;SDS011;26906;45.658;9.272;2024-02-04T12:39:25;28.38;;;23.10;;
41167;SDS011;26906;45.658;9.272;2024-02-04T12:41:51;30.08;;;23.20;;
41167;SDS011;26906;45.658;9.272;2024-02-04T12:44:18;31.05;;;22.98;;
41167;SDS011;26906;45.658;9.272;2024-02-04T12:46:44;33.60;;;22.88;;
41167;SDS011;26906;45.658;9.272;2024-02-04T12:49:09;32.75;;;24.02;;
41167;SDS011;26906;45.658;9.272;2024-02-04T12:51:42;35.33;;;24.23;;
41167;SDS011;26906;45.658;9.272;2024-02-04T12:54:09;32.10;;;24.08;;
41167;SDS011;26906;45.658;9.272;2024-02-04T12:56:46;31.45;;;24.20;;
41167;SDS011;26906;45.658;9.272;2024-02-04T13:02:00;30.45;;;23.48;;
41167;SDS011;26906;45.658;9.272;2024-02-04T13:04:39;29.98;;;23.88;;
41167;SDS011;26906;45.658;9.272;2024-02-04T13:07:10;36.90;;;25.40;;
41167;SDS011;26906;45.658;9.272;2024-02-04T13:09:43;31.77;;;26.08;;
41167;SDS011;26906;45.658;9.272;2024-02-04T13:12:14;40.15;;;25.95;;
41167;SDS011;26906;45.658;9.272;2024-02-04T13:14:41;38.42;;;26.35;;
41167;SDS011;26906;45.658;9.272;2024-02-04T13:17:07;35.03;;;26.05;;
41167;SDS011;26906;45.658;9.272;2024-02-04T13:19:36;33.33;;;25.25;;
41167;SDS011;26906;45.658;9.272;2024-02-04T13:22:03;33.72;;;25.40;;
41167;SDS011;26906;45.658;9.272;2024-02-04T13:24:34;35.05;;;26.52;;
41167;SDS011;26906;45.658;9.272;2024-02-04T13:27:00;34.13;;;25.70;;
41167;SDS011;26906;45.658;9.272;2024-02-04T13:29:29;31.30;;;25.40;;
41167;SDS011;26906;45.658;9.272;2024-02-04T13:31:55;38.00;;;26.13;;
41167;SDS011;26906;45.658;9.272;2024-02-04T13:34:24;36.05;;;25.63;;
41167;SDS011;26906;45.658;9.272;2024-02-04T13:36:50;35.88;;;26.02;;
41167;SDS011;26906;45.658;9.272;2024-02-04T13:39:16;38.15;;;27.98;;
41167;SDS011;26906;45.658;9.272;2024-02-04T13:41:43;31.40;;;25.95;;
41167;SDS011;26906;45.658;9.272;2024-02-04T13:44:09;33.42;;;25.60;;
41167;SDS011;26906;45.658;9.272;2024-02-04T13:46:35;33.50;;;25.05;;
41167;SDS011;26906;45.658;9.272;2024-02-04T13:49:01;35.33;;;25.17;;
41167;SDS011;26906;45.658;9.272;2024-02-04T13:51:28;28.20;;;23.92;;
41167;SDS011;26906;45.658;9.272;2024-02-04T13:53:54;29.02;;;23.20;;
41167;SDS011;26906;45.658;9.272;2024-02-04T13:56:20;27.45;;;22.77;;
41167;SDS011;26906;45.658;9.272;2024-02-04T13:58:46;27.83;;;23.15;;
41167;SDS011;26906;45.658;9.272;2024-02-04T14:01:11;32.15;;;23.77;;
41167;SDS011;26906;45.658;9.272;2024-02-04T14:03:38;28.55;;;24.25;;
41167;SDS011;26906;45.658;9.272;2024-02-04T14:06:05;32.08;;;22.58;;
41167;SDS011;26906;45.658;9.272;2024-02-04T14:08:31;28.98;;;22.30;;
41167;SDS011;26906;45.658;9.272;2024-02-04T14:10:56;28.70;;;21.52;;
41167;SDS011;26906;45.658;9.272;2024-02-04T14:13:22;27.33;;;21.90;;
41167;SDS011;26906;45.658;9.272;2024-02-04T14:15:49;29.42;;;21.90;;
41167;SDS011;26906;45.658;9.272;2024-02-04T14:18:14;26.70;;;21.05;;
41167;SDS011;26906;45.658;9.272;2024-02-04T14:20:40;28.33;;;20.95;;
41167;SDS011;26906;45.658;9.272;2024-02-04T14:23:07;29.15;;;21.02;;
41167;SDS011;26906;45.658;9.272;2024-02-04T14:25:35;30.35;;;20.23;;
41167;SDS011;26906;45.658;9.272;2024-02-04T14:28:01;23.02;;;18.88;;
41167;SDS011;26906;45.658;9.272;2024-02-04T14:30:29;26.10;;;17.85;;
41167;SDS011;26906;45.658;9.272;2024-02-04T14:32:55;23.83;;;16.95;;
41167;SDS011;26906;45.658;9.272;2024-02-04T14:35:21;25.13;;;17.95;;
41167;SDS011;26906;45.658;9.272;2024-02-04T14:37:47;22.10;;;17.10;;
41167;SDS011;26906;45.658;9.272;2024-02-04T14:40:12;21.67;;;15.77;;
41167;SDS011;26906;45.658;9.272;2024-02-04T14:42:40;22.50;;;17.05;;
41167;SDS011;26906;45.658;9.272;2024-02-04T14:45:06;26.70;;;17.50;;
41167;SDS011;26906;45.658;9.272;2024-02-04T14:47:32;21.58;;;17.70;;
41167;SDS011;26906;45.658;9.272;2024-02-04T14:49:58;20.70;;;16.17;;
41167;SDS011;26906;45.658;9.272;2024-02-04T14:52:25;24.48;;;17.38;;
41167;SDS011;26906;45.658;9.272;2024-02-04T14:54:50;25.88;;;17.23;;
41167;SDS011;26906;45.658;9.272;2024-02-04T14:57:16;21.98;;;17.17;;
41167;SDS011;26906;45.658;9.272;2024-02-04T14:59:42;21.88;;;17.38;;
41167;SDS011;26906;45.658;9.272;2024-02-04T15:02:08;25.48;;;17.80;;
41167;SDS011;26906;45.658;9.272;2024-02-04T15:04:35;27.13;;;18.08;;
41167;SDS011;26906;45.658;9.272;2024-02-04T15:07:00;31.08;;;20.77;;
41167;SDS011;26906;45.658;9.272;2024-02-04T15:09:33;27.50;;;19.10;;
41167;SDS011;26906;45.658;9.272;2024-02-04T15:11:59;26.27;;;18.27;;
41167;SDS011;26906;45.658;9.272;2024-02-04T15:14:26;29.48;;;18.92;;
41167;SDS011;26906;45.658;9.272;2024-02-04T15:16:55;24.35;;;17.77;;
41167;SDS011;26906;45.658;9.272;2024-02-04T15:19:24;22.33;;;18.30;;
41167;SDS011;26906;45.658;9.272;2024-02-04T15:21:51;25.63;;;18.40;;
41167;SDS011;26906;45.658;9.272;2024-02-04T15:24:17;26.48;;;18.98;;
41167;SDS011;26906;45.658;9.272;2024-02-04T15:26:43;22.90;;;18.13;;
41167;SDS011;26906;45.658;9.272;2024-02-04T15:29:12;24.83;;;18.45;;
41167;SDS011;26906;45.658;9.272;2024-02-04T15:31:40;28.13;;;18.70;;
41167;SDS011;26906;45.658;9.272;2024-02-04T15:34:06;32.72;;;20.38;;
41167;SDS011;26906;45.658;9.272;2024-02-04T15:36:32;23.95;;;18.67;;
41167;SDS011;26906;45.658;9.272;2024-02-04T15:38:58;25.73;;;19.70;;
41167;SDS011;26906;45.658;9.272;2024-02-04T15:41:24;28.15;;;20.25;;
41167;SDS011;26906;45.658;9.272;2024-02-04T15:43:49;25.80;;;19.35;;
41167;SDS011;26906;45.658;9.272;2024-02-04T15:46:15;30.35;;;21.23;;
41167;SDS011;26906;45.658;9.272;2024-02-04T15:48:43;27.02;;;21.58;;
41167;SDS011;26906;45.658;9.272;2024-02-04T15:51:11;29.67;;;21.27;;
41167;SDS011;26906;45.658;9.272;2024-02-04T15:53:37;28.05;;;21.63;;
41167;SDS011;26906;45.658;9.272;2024-02-04T15:56:06;31.33;;;22.23;;
41167;SDS011;26906;45.658;9.272;2024-02-04T15:58:32;30.83;;;22.58;;
41167;SDS011;26906;45.658;9.272;2024-02-04T16:01:05;32.05;;;21.38;;
41167;SDS011;26906;45.658;9.272;2024-02-04T16:03:40;27.88;;;21.83;;
41167;SDS011;26906;45.658;9.272;2024-02-04T16:06:07;26.52;;;21.05;;
41167;SDS011;26906;45.658;9.272;2024-02-04T16:08:33;28.83;;;22.40;;
41167;SDS011;26906;45.658;9.272;2024-02-04T16:11:00;27.40;;;21.77;;
41167;SDS011;26906;45.658;9.272;2024-02-04T16:13:30;34.63;;;24.08;;
41167;SDS011;26906;45.658;9.272;2024-02-04T16:15:58;31.77;;;23.30;;
41167;SDS011;26906;45.658;9.272;2024-02-04T16:18:27;33.03;;;25.10;;
41167;SDS011;26906;45.658;9.272;2024-02-04T16:20:53;38.50;;;23.58;;
41167;SDS011;26906;45.658;9.272;2024-02-04T16:23:19;29.73;;;23.55;;
41167;SDS011;26906;45.658;9.272;2024-02-04T16:25:45;36.30;;;24.50;;
41167;SDS011;26906;45.658;9.272;2024-02-04T16:28:11;37.88;;;24.92;;
41167;SDS011;26906;45.658;9.272;2024-02-04T16:30:36;33.60;;;24.40;;
41167;SDS011;26906;45.658;9.272;2024-02-04T16:33:02;40.70;;;26.42;;
41167;SDS011;26906;45.658;9.272;2024-02-04T16:35:28;37.28;;;25.77;;
41167;SDS011;26906;45.658;9.272;2024-02-04T16:37:54;34.92;;;26.88;;
41167;SDS011;26906;45.658;9.272;2024-02-04T16:40:21;36.35;;;27.40;;
41167;SDS011;26906;45.658;9.272;2024-02-04T16:42:48;35.63;;;26.50;;
41167;SDS011;26906;45.658;9.272;2024-02-04T16:45:14;35.60;;;26.90;;
41167;SDS011;26906;45.658;9.272;2024-02-04T16:47:40;35.30;;;28.23;;
41167;SDS011;26906;45.658;9.272;2024-02-04T16:50:06;37.63;;;27.75;;
41167;SDS011;26906;45.658;9.272;2024-02-04T16:52:32;35.13;;;26.98;;
41167;SDS011;26906;45.658;9.272;2024-02-04T16:54:58;36.42;;;28.80;;
41167;SDS011;26906;45.658;9.272;2024-02-04T16:57:24;37.05;;;29.02;;
41167;SDS011;26906;45.658;9.272;2024-02-04T16:59:50;40.22;;;28.58;;
41167;SDS011;26906;45.658;9.272;2024-02-04T17:02:15;37.45;;;28.20;;
41167;SDS011;26906;45.658;9.272;2024-02-04T17:04:46;44.40;;;34.03;;
41167;SDS011;26906;45.658;9.272;2024-02-04T17:07:16;47.63;;;32.80;;
41167;SDS011;26906;45.658;9.272;2024-02-04T17:09:43;47.47;;;34.42;;
41167;SDS011;26906;45.658;9.272;2024-02-04T17:12:12;45.75;;;31.77;;
41167;SDS011;26906;45.658;9.272;2024-02-04T17:14:38;44.25;;;30.65;;
41167;SDS011;26906;45.658;9.272;2024-02-04T17:17:05;38.08;;;30.98;;
41167;SDS011;26906;45.658;9.272;2024-02-04T17:19:44;43.47;;;30.77;;
41167;SDS011;26906;45.658;9.272;2024-02-04T17:22:35;41.50;;;31.27;;
41167;SDS011;26906;45.658;9.272;2024-02-04T17:25:02;44.55;;;32.05;;
41167;SDS011;26906;45.658;9.272;2024-02-04T17:27:31;42.78;;;32.55;;
41167;SDS011;26906;45.658;9.272;2024-02-04T17:30:00;45.95;;;33.30;;
41167;SDS011;26906;45.658;9.272;2024-02-04T17:32:26;43.90;;;33.72;;
41167;SDS011;26906;45.658;9.272;2024-02-04T17:34:54;46.30;;;34.15;;
41167;SDS011;26906;45.658;9.272;2024-02-04T17:37:20;44.35;;;34.00;;
41167;SDS011;26906;45.658;9.272;2024-02-04T17:39:46;42.78;;;31.75;;
41167;SDS011;26906;45.658;9.272;2024-02-04T17:42:12;44.00;;;33.90;;
41167;SDS011;26906;45.658;9.272;2024-02-04T17:44:38;46.05;;;34.90;;
41167;SDS011;26906;45.658;9.272;2024-02-04T17:47:05;44.22;;;33.72;;
41167;SDS011;26906;45.658;9.272;2024-02-04T17:49:31;47.45;;;37.22;;
41167;SDS011;26906;45.658;9.272;2024-02-04T17:51:58;51.40;;;37.95;;
41167;SDS011;26906;45.658;9.272;2024-02-04T17:54:24;46.78;;;33.65;;
41167;SDS011;26906;45.658;9.272;2024-02-04T17:56:52;46.83;;;33.67;;
41167;SDS011;26906;45.658;9.272;2024-02-04T17:59:19;47.85;;;32.92;;
41167;SDS011;26906;45.658;9.272;2024-02-04T18:01:45;46.80;;;34.97;;
41167;SDS011;26906;45.658;9.272;2024-02-04T18:04:11;107.43;;;64.03;;
41167;SDS011;26906;45.658;9.272;2024-02-04T18:06:37;80.47;;;52.75;;
41167;SDS011;26906;45.658;9.272;2024-02-04T18:09:04;90.65;;;54.13;;
41167;SDS011;26906;45.658;9.272;2024-02-04T18:11:31;110.68;;;59.63;;
41167;SDS011;26906;45.658;9.272;2024-02-04T18:14:01;74.32;;;46.08;;
41167;SDS011;26906;45.658;9.272;2024-02-04T18:16:27;64.78;;;42.58;;
41167;SDS011;26906;45.658;9.272;2024-02-04T18:18:53;65.68;;;42.47;;
41167;SDS011;26906;45.658;9.272;2024-02-04T18:21:27;57.47;;;38.88;;
41167;SDS011;26906;45.658;9.272;2024-02-04T18:23:52;57.15;;;37.60;;
41167;SDS011;26906;45.658;9.272;2024-02-04T18:26:25;47.55;;;33.53;;
41167;SDS011;26906;45.658;9.272;2024-02-04T18:28:53;52.05;;;36.53;;
41167;SDS011;26906;45.658;9.272;2024-02-04T18:31:23;49.55;;;36.28;;
41167;SDS011;26906;45.658;9.272;2024-02-04T18:33:51;49.92;;;34.20;;
41167;SDS011;26906;45.658;9.272;2024-02-04T18:36:18;48.10;;;35.50;;
41167;SDS011;26906;45.658;9.272;2024-02-04T18:38:52;54.35;;;39.80;;
41167;SDS011;26906;45.658;9.272;2024-02-04T18:41:19;53.10;;;39.10;;
41167;SDS011;26906;45.658;9.272;2024-02-04T18:43:46;53.90;;;39.67;;
41167;SDS011;26906;45.658;9.272;2024-02-04T18:46:12;61.92;;;45.75;;
41167;SDS011;26906;45.658;9.272;2024-02-04T18:48:38;63.22;;;43.13;;
41167;SDS011;26906;45.658;9.272;2024-02-04T18:51:05;60.20;;;42.90;;
41167;SDS011;26906;45.658;9.272;2024-02-04T18:53:32;58.47;;;42.70;;
41167;SDS011;26906;45.658;9.272;2024-02-04T18:55:58;57.25;;;41.97;;
41167;SDS011;26906;45.658;9.272;2024-02-04T18:58:27;54.92;;;41.22;;
41167;SDS011;26906;45.658;9.272;2024-02-04T19:00:54;58.65;;;39.53;;
41167;SDS011;26906;45.658;9.272;2024-02-04T19:03:21;59.08;;;40.08;;
41167;SDS011;26906;45.658;9.272;2024-02-04T19:05:47;54.00;;;39.13;;
41167;SDS011;26906;45.658;9.272;2024-02-04T19:08:14;54.22;;;38.50;;
41167;SDS011;26906;45.658;9.272;2024-02-04T19:10:40;51.97;;;38.95;;
41167;SDS011;26906;45.658;9.272;2024-02-04T19:13:07;54.95;;;39.78;;
41167;SDS011;26906;45.658;9.272;2024-02-04T19:15:33;53.63;;;38.95;;
41167;SDS011;26906;45.658;9.272;2024-02-04T19:17:59;54.42;;;37.70;;
41167;SDS011;26906;45.658;9.272;2024-02-04T19:20:27;45.45;;;34.85;;
41167;SDS011;26906;45.658;9.272;2024-02-04T19:22:53;47.47;;;35.88;;
41167;SDS011;26906;45.658;9.272;2024-02-04T19:25:20;51.97;;;35.08;;
41167;SDS011;26906;45.658;9.272;2024-02-04T19:27:50;47.53;;;33.22;;
41167;SDS011;26906;45.658;9.272;2024-02-04T19:30:20;42.55;;;30.67;;
41167;SDS011;26906;45.658;9.272;2024-02-04T19:32:47;41.30;;;30.85;;
41167;SDS011;26906;45.658;9.272;2024-02-04T19:35:18;44.05;;;31.73;;
41167;SDS011;26906;45.658;9.272;2024-02-04T19:37:45;45.15;;;32.40;;
41167;SDS011;26906;45.658;9.272;2024-02-04T19:40:11;42.65;;;31.25;;
41167;SDS011;26906;45.658;9.272;2024-02-04T19:42:38;44.30;;;32.15;;
41167;SDS011;26906;45.658;9.272;2024-02-04T19:45:05;44.33;;;29.98;;
41167;SDS011;26906;45.658;9.272;2024-02-04T19:47:35;43.33;;;31.73;;
41167;SDS011;26906;45.658;9.272;2024-02-04T19:50:01;43.05;;;30.20;;
41167;SDS011;26906;45.658;9.272;2024-02-04T19:52:30;43.58;;;29.27;;
41167;SDS011;26906;45.658;9.272;2024-02-04T19:54:57;47.30;;;33.15;;
41167;SDS011;26906;45.658;9.272;2024-02-04T19:57:23;45.67;;;32.58;;
41167;SDS011;26906;45.658;9.272;2024-02-04T19:59:49;42.53;;;31.02;;
41167;SDS011;26906;45.658;9.272;2024-02-04T20:02:15;38.85;;;28.50;;
41167;SDS011;26906;45.658;9.272;2024-02-04T20:04:41;44.85;;;29.98;;
41167;SDS011;26906;45.658;9.272;2024-02-04T20:07:06;44.47;;;31.38;;
41167;SDS011;26906;45.658;9.272;2024-02-04T20:09:33;44.90;;;32.08;;
41167;SDS011;26906;45.658;9.272;2024-02-04T20:11:59;43.30;;;28.95;;
41167;SDS011;26906;45.658;9.272;2024-02-04T20:14:25;38.13;;;27.42;;
41167;SDS011;26906;45.658;9.272;2024-02-04T20:16:50;40.75;;;29.02;;
41167;SDS011;26906;45.658;9.272;2024-02-04T20:19:16;43.40;;;29.98;;
41167;SDS011;26906;45.658;9.272;2024-02-04T20:21:42;39.70;;;26.85;;
41167;SDS011;26906;45.658;9.272;2024-02-04T20:24:08;39.83;;;28.38;;
41167;SDS011;26906;45.658;9.272;2024-02-04T20:26:34;38.75;;;26.63;;
41167;SDS011;26906;45.658;9.272;2024-02-04T20:29:01;35.72;;;25.58;;
41167;SDS011;26906;45.658;9.272;2024-02-04T20:31:28;40.15;;;27.55;;
41167;SDS011;26906;45.658;9.272;2024-02-04T20:33:55;37.83;;;27.25;;
41167;SDS011;26906;45.658;9.272;2024-02-04T20:36:21;39.15;;;27.75;;
41167;SDS011;26906;45.658;9.272;2024-02-04T20:38:47;39.22;;;26.15;;
41167;SDS011;26906;45.658;9.272;2024-02-04T20:41:13;41.53;;;27.42;;
41167;SDS011;26906;45.658;9.272;2024-02-04T20:43:39;36.22;;;25.90;;
41167;SDS011;26906;45.658;9.272;2024-02-04T20:46:05;38.50;;;24.90;;
41167;SDS011;26906;45.658;9.272;2024-02-04T20:48:35;37.22;;;24.75;;
41167;SDS011;26906;45.658;9.272;2024-02-04T20:51:04;38.03;;;23.92;;
41167;SDS011;26906;45.658;9.272;2024-02-04T20:53:30;32.67;;;22.75;;
41167;SDS011;26906;45.658;9.272;2024-02-04T20:55:56;34.10;;;22.50;;
41167;SDS011;26906;45.658;9.272;2024-02-04T20:58:22;32.40;;;21.55;;
41167;SDS011;26906;45.658;9.272;2024-02-04T21:00:48;30.02;;;21.27;;
41167;SDS011;26906;45.658;9.272;2024-02-04T21:03:14;34.60;;;21.70;;
41167;SDS011;26906;45.658;9.272;2024-02-04T21:05:39;31.98;;;20.33;;
41167;SDS011;26906;45.658;9.272;2024-02-04T21:08:06;29.98;;;20.92;;